Time;durP1;ratioP1;P1;durP2;ratioP2;P2;SDS_P1;SDS_P2;PMS_P1;PMS_P2;Temp;Humidity;BMP_temperature;BMP_pressure;BME280_temperature;BME280_humidity;BME280_pressure;Samples;Min_cycle;Max_cycle;Signal;HPM_P1;HPM_P2
2023/03/07 00:02:24;;;;;;;55.20;24.80;;;;;;;-141.97;77.06;47678.63;5044062;28;20177;-86
2023/03/07 00:04:50;;;;;;;71.37;28.37;;;;;;;-141.97;77.18;47715.13;5039828;28;20253;-86
2023/03/07 00:07:15;;;;;;;51.53;24.43;;;;;;;-141.97;77.33;47718.97;5033657;28;20190;-87
2023/03/07 00:09:41;;;;;;;53.97;24.40;;;;;;;-141.97;77.17;47647.84;5030534;28;20623;-87
2023/03/07 00:12:08;;;;;;;49.13;22.77;;;;;;;-141.97;76.71;47792.03;5031459;28;20170;-87
2023/03/07 00:14:34;;;;;;;50.30;23.37;;;;;;;-141.97;76.51;47809.31;5031629;28;20170;-86
2023/03/07 00:16:59;;;;;;;46.60;23.47;;;;;;;-141.97;76.51;47680.53;5031067;28;20923;-87
2023/03/07 00:19:25;;;;;;;49.07;23.13;;;;;;;-141.97;77.08;47776.63;5031057;28;20177;-86
2023/03/07 00:21:50;;;;;;;47.57;23.43;;;;;;;-141.97;77.89;47688.22;5030753;28;20174;-86
2023/03/07 00:24:15;;;;;;;51.40;24.10;;;;;;;-141.97;78.65;47792.03;5031027;28;20212;-87
2023/03/07 00:26:41;;;;;;;48.80;23.37;;;;;;;-141.97;78.49;47715.13;5029927;28;20263;-87
2023/03/07 00:29:08;;;;;;;49.20;22.83;;;;;;;-141.97;78.66;47799.72;5032084;28;20173;-87
2023/03/07 00:31:34;;;;;;;53.87;24.27;;;;;;;-141.97;78.81;47761.25;5032377;28;20166;-87
2023/03/07 00:34:00;;;;;;;49.90;23.97;;;;;;;-141.97;79.07;47751.66;5034916;28;20409;-87
2023/03/07 00:36:26;;;;;;;49.30;23.70;;;;;;;-141.97;79.29;47751.66;5034273;28;20497;-87
2023/03/07 00:38:51;;;;;;;53.23;24.47;;;;;;;-141.97;79.66;47720.91;5035688;28;20239;-87
2023/03/07 00:41:25;;;;;;;51.23;22.60;;;;;;;-141.97;79.55;47859.28;5036008;28;20177;-87
2023/03/07 00:43:51;;;;;;;53.50;24.07;;;;;;;-141.97;79.74;47768.94;5033009;28;20177;-87
2023/03/07 00:46:19;;;;;;;48.27;24.43;;;;;;;-141.97;79.91;47903.50;5033441;28;20944;-87
2023/03/07 00:48:45;;;;;;;46.80;22.97;;;;;;;-141.97;80.27;47805.47;5033896;28;20435;-88
2023/03/07 00:51:13;;;;;;;49.53;23.90;;;;;;;-141.97;80.69;47805.47;5032528;28;20439;-87
2023/03/07 00:53:39;;;;;;;53.67;25.17;;;;;;;-141.97;81.07;47661.31;5033131;28;20409;-87
2023/03/07 00:56:08;;;;;;;56.70;25.17;;;;;;;-141.97;81.27;47772.78;5034305;28;20845;-87
2023/03/07 00:58:35;;;;;;;53.27;23.87;;;;;;;-141.97;80.91;47776.63;5034701;28;20429;-87
2023/03/07 01:01:03;;;;;;;58.70;26.10;;;;;;;-141.97;80.89;47765.09;5034022;28;20823;-87
2023/03/07 01:03:29;;;;;;;70.10;27.43;;;;;;;-141.97;81.08;47690.16;5034101;28;20492;-87
2023/03/07 01:05:55;;;;;;;55.87;24.70;;;;;;;-141.97;80.52;47820.84;5034187;28;20864;-87
2023/03/07 01:08:21;;;;;;;65.20;28.17;;;;;;;-141.97;80.04;47757.41;5034345;28;20162;-87
2023/03/07 01:10:49;;;;;;;61.10;26.43;;;;;;;-141.97;80.71;47753.56;5032928;28;20516;-86
2023/03/07 01:13:17;;;;;;;51.73;25.17;;;;;;;-141.97;80.91;47603.66;5032700;28;20432;-87
2023/03/07 01:15:42;;;;;;;67.93;31.10;;;;;;;-141.97;80.96;47763.19;5034004;28;20405;-87
2023/03/07 01:18:09;;;;;;;78.03;35.93;;;;;;;-141.97;80.88;47784.34;5032789;28;20405;-87
2023/03/07 01:20:36;;;;;;;62.83;28.83;;;;;;;-141.97;79.88;47745.88;5033722;28;20169;-87
2023/03/07 01:23:03;;;;;;;64.30;29.17;;;;;;;-141.97;80.24;47718.97;5034206;28;20407;-87
2023/03/07 01:25:28;;;;;;;59.53;27.67;;;;;;;-141.97;80.35;47751.66;5034361;28;20455;-87
2023/03/07 01:27:54;;;;;;;60.10;27.70;;;;;;;-141.97;80.14;47815.09;5035154;28;20397;-87
2023/03/07 01:30:21;;;;;;;63.40;28.83;;;;;;;-141.97;79.72;47834.31;5034907;28;20243;-87
2023/03/07 01:32:47;;;;;;;59.57;27.43;;;;;;;-141.97;79.65;47799.72;5033002;28;20424;-87
2023/03/07 01:35:14;;;;;;;62.33;28.80;;;;;;;-141.97;79.85;47780.47;5033250;28;20415;-87
2023/03/07 01:37:39;;;;;;;56.80;27.03;;;;;;;-141.97;79.67;47734.34;5033990;28;20401;-86
2023/03/07 01:40:05;;;;;;;50.83;24.83;;;;;;;-141.97;80.42;47753.56;5032723;28;20939;-87
2023/03/07 01:42:31;;;;;;;49.60;24.37;;;;;;;-141.97;81.30;47657.47;5032913;28;20239;-87
2023/03/07 01:45:00;;;;;;;47.60;22.43;;;;;;;-141.97;82.19;47788.19;5032644;28;20926;-87
2023/03/07 01:47:25;;;;;;;53.47;22.90;;;;;;;-141.97;84.72;47795.88;5034031;28;20227;-86
2023/03/07 01:49:50;;;;;;;52.27;21.43;;;;;;;-141.97;85.76;47836.22;5034830;28;20957;-87
2023/03/07 01:52:28;;;;;;;48.80;23.07;;;;;;;-141.97;86.96;47765.09;5033757;28;20690;-87
2023/03/07 01:54:59;;;;;;;48.83;22.10;;;;;;;-141.97;88.45;47749.72;5032680;28;20166;-87
2023/03/07 01:57:31;;;;;;;46.67;21.00;;;;;;;-141.97;89.99;47853.53;5033675;28;20397;-87
2023/03/07 02:00:00;;;;;;;49.10;22.73;;;;;;;-141.97;89.54;47680.53;5031927;28;20409;-87
2023/03/07 02:02:27;;;;;;;53.30;23.20;;;;;;;-141.97;89.23;47780.47;5031940;28;20419;-87
2023/03/07 02:05:18;;;;;;;53.30;23.50;;;;;;;-141.97;88.05;47761.25;5033806;28;20495;-87
2023/03/07 02:07:49;;;;;;;53.10;23.10;;;;;;;-141.97;87.35;47724.75;4994791;28;20528;-87
2023/03/07 02:10:18;;;;;;;53.60;23.23;;;;;;;-141.97;87.62;47765.09;5011143;28;20811;-87
2023/03/07 02:12:44;;;;;;;51.40;23.73;;;;;;;-141.97;86.92;47788.19;4994671;28;20436;-87
2023/03/07 02:15:11;;;;;;;54.20;22.90;;;;;;;-141.97;86.21;47763.19;5011465;28;20414;-87
2023/03/07 02:17:39;;;;;;;48.10;21.27;;;;;;;-141.97;86.19;47840.06;5012890;28;20171;-87
2023/03/07 02:20:43;;;;;;;47.77;23.03;;;;;;;-141.97;86.44;47678.63;5012673;28;20421;-88
2023/03/07 02:23:33;;;;;;;50.63;21.73;;;;;;;-141.97;86.46;47784.34;5007884;28;20430;-87
2023/03/07 02:26:21;;;;;;;48.07;22.30;;;;;;;-141.97;86.87;47868.91;4915480;29;20469;-87
2023/03/07 02:28:47;;;;;;;52.73;22.23;;;;;;;-141.97;87.13;47680.53;4914069;29;20466;-87
2023/03/07 02:31:13;;;;;;;51.50;24.50;;;;;;;-141.97;87.34;47730.50;4914574;29;20791;-86
2023/03/07 02:33:38;;;;;;;52.20;24.03;;;;;;;-141.97;86.84;47768.94;4914086;29;20417;-87
2023/03/07 02:36:13;;;;;;;52.17;23.37;;;;;;;-141.97;86.42;47770.88;4914188;29;20180;-87
2023/03/07 02:38:41;;;;;;;53.43;24.70;;;;;;;-141.97;86.65;47759.34;4914222;29;20199;-87
2023/03/07 02:41:10;;;;;;;47.57;23.13;;;;;;;-141.97;86.03;47717.06;4914004;29;20426;-88
2023/03/07 02:43:36;;;;;;;52.40;24.30;;;;;;;-141.97;86.14;47868.91;4918470;29;20434;-88
2023/03/07 02:46:02;;;;;;;52.27;24.13;;;;;;;-141.97;86.23;47776.63;4936811;29;20507;-87
2023/03/07 02:48:27;;;;;;;60.93;27.63;;;;;;;-141.97;85.74;47818.94;4952380;29;20173;-87
2023/03/07 02:50:53;;;;;;;145.33;54.13;;;;;;;-141.97;85.31;47830.47;4951166;29;20791;-87
2023/03/07 02:53:18;;;;;;;129.47;47.80;;;;;;;-141.97;84.80;47815.09;4951929;29;20176;-87
2023/03/07 02:55:43;;;;;;;68.13;30.27;;;;;;;-141.97;85.09;47742.03;4955134;28;20571;-87
2023/03/07 02:58:09;;;;;;;76.87;34.03;;;;;;;-141.97;84.67;47768.94;4955542;29;20163;-87
2023/03/07 03:00:35;;;;;;;68.83;30.43;;;;;;;-141.97;84.95;47784.34;4952317;29;20264;-87
2023/03/07 03:03:01;;;;;;;49.93;22.03;;;;;;;-141.97;85.52;47701.69;4990692;28;20273;-87
2023/03/07 03:05:26;;;;;;;48.23;21.63;;;;;;;-141.97;85.98;47838.16;5031804;28;21050;-87
2023/03/07 03:07:52;;;;;;;41.50;20.10;;;;;;;-141.97;86.01;47842.00;5030376;28;20566;-87
2023/03/07 03:10:17;;;;;;;43.20;20.60;;;;;;;-141.97;85.82;47772.78;5030230;28;20273;-87
2023/03/07 03:12:43;;;;;;;43.73;19.67;;;;;;;-141.97;85.51;47711.28;5030080;28;20197;-87
2023/03/07 03:15:09;;;;;;;46.30;20.63;;;;;;;-141.97;85.62;47836.22;5030199;28;20178;-88
2023/03/07 03:17:35;;;;;;;50.63;20.87;;;;;;;-141.97;86.05;47707.44;5030183;28;20185;-87
2023/03/07 03:20:00;;;;;;;50.20;20.97;;;;;;;-141.97;85.67;47703.59;5030047;28;20416;-87
2023/03/07 03:22:26;;;;;;;46.90;21.80;;;;;;;-141.97;86.33;47780.47;5030323;28;20213;-87
2023/03/07 03:24:51;;;;;;;44.00;21.40;;;;;;;-141.97;86.60;47826.63;5030165;28;20177;-87
2023/03/07 03:27:16;;;;;;;51.20;23.63;;;;;;;-141.97;86.28;47715.13;5030035;28;20205;-87
2023/03/07 03:29:42;;;;;;;48.90;23.00;;;;;;;-141.97;86.35;47647.84;5030079;28;20205;-88
2023/03/07 03:32:07;;;;;;;51.00;23.27;;;;;;;-141.97;86.91;47642.09;5032101;28;20205;-87
2023/03/07 03:34:33;;;;;;;51.50;22.50;;;;;;;-141.97;86.83;47761.25;5030153;28;20162;-87
2023/03/07 03:36:58;;;;;;;54.13;23.73;;;;;;;-141.97;86.86;47849.69;5031851;28;20166;-87
2023/03/07 03:39:24;;;;;;;47.13;22.40;;;;;;;-141.97;87.16;47815.09;5031190;28;20170;-87
2023/03/07 03:41:49;;;;;;;53.70;22.97;;;;;;;-141.97;86.81;47624.78;5030058;28;20710;-87
2023/03/07 03:44:15;;;;;;;53.10;24.43;;;;;;;-141.97;87.28;47742.03;5031943;28;20178;-87
2023/03/07 03:46:40;;;;;;;52.97;23.97;;;;;;;-141.97;86.70;47647.84;5031439;28;20186;-88
2023/03/07 03:49:05;;;;;;;48.13;22.63;;;;;;;-141.97;87.16;47782.41;5031893;28;20682;-87
2023/03/07 03:51:31;;;;;;;53.30;22.93;;;;;;;-141.97;86.54;47680.53;5031346;28;20630;-87
2023/03/07 03:53:57;;;;;;;52.30;23.37;;;;;;;-141.97;86.42;47753.56;5030151;28;20638;-87
2023/03/07 03:56:24;;;;;;;57.07;26.87;;;;;;;-141.97;87.30;47751.66;5031735;28;20193;-87
2023/03/07 03:58:52;;;;;;;55.87;25.53;;;;;;;-141.97;88.15;47799.72;5030763;28;20479;-87
2023/03/07 04:01:19;;;;;;;53.23;24.33;;;;;;;-141.97;87.87;47786.25;5031699;28;20417;-88
2023/03/07 04:03:47;;;;;;;51.87;23.27;;;;;;;-141.97;87.79;47720.91;5029835;28;20873;-87
2023/03/07 04:06:19;;;;;;;55.37;25.03;;;;;;;-141.97;87.28;47740.13;5030912;28;20518;-87
2023/03/07 04:08:45;;;;;;;56.00;25.77;;;;;;;-141.97;86.78;47740.13;5033329;28;20490;-87
2023/03/07 04:11:11;;;;;;;61.63;27.50;;;;;;;-141.97;86.35;47695.91;5035499;28;20412;-87
2023/03/07 04:13:37;;;;;;;52.67;24.50;;;;;;;-141.97;86.46;47738.19;5035063;28;20415;-87
2023/03/07 04:16:03;;;;;;;50.43;24.93;;;;;;;-141.97;86.31;47761.25;5037885;28;20193;-88
2023/03/07 04:18:28;;;;;;;54.13;24.57;;;;;;;-141.97;86.91;47786.25;5035357;28;20166;-87
2023/03/07 04:20:54;;;;;;;63.50;27.80;;;;;;;-141.97;86.54;47855.44;5035115;28;20470;-87
2023/03/07 04:23:22;;;;;;;58.83;25.93;;;;;;;-141.97;86.96;47784.34;5035225;28;20558;-87
2023/03/07 04:25:56;;;;;;;56.97;25.33;;;;;;;-141.97;86.42;47757.41;5033845;28;20198;-88
2023/03/07 04:28:23;;;;;;;57.20;25.37;;;;;;;-141.97;86.51;47772.78;5034100;28;20826;-88
2023/03/07 04:30:51;;;;;;;55.83;26.03;;;;;;;-141.97;86.40;47726.66;5034600;28;20784;-87
2023/03/07 04:33:16;;;;;;;55.17;24.60;;;;;;;-141.97;86.77;47838.16;5034986;28;20424;-86
2023/03/07 04:35:42;;;;;;;53.53;24.57;;;;;;;-141.97;87.07;47805.47;5033824;28;20729;-85
2023/03/07 04:38:08;;;;;;;64.77;27.57;;;;;;;-141.97;87.46;47772.78;5034179;28;20170;-86
2023/03/07 04:40:34;;;;;;;60.73;26.53;;;;;;;-141.97;87.52;47703.59;5036232;28;20178;-86
2023/03/07 04:43:00;;;;;;;59.47;26.57;;;;;;;-141.97;87.18;47694.00;5037019;28;20420;-86
2023/03/07 04:45:26;;;;;;;58.67;25.73;;;;;;;-141.97;86.94;47768.94;5054926;28;20444;-86
2023/03/07 04:47:51;;;;;;;59.93;25.63;;;;;;;-141.97;87.20;47747.81;5053348;28;20508;-87
2023/03/07 04:50:18;;;;;;;63.77;27.57;;;;;;;-141.97;86.62;47895.81;5043692;28;20674;-87
2023/03/07 04:52:43;;;;;;;101.37;44.60;;;;;;;-141.97;86.85;47734.34;5035328;28;20177;-86
2023/03/07 04:55:09;;;;;;;77.87;33.40;;;;;;;-141.97;86.69;47797.78;5033359;28;20405;-86
2023/03/07 04:57:34;;;;;;;68.30;29.63;;;;;;;-141.97;86.43;47786.25;5033939;28;20171;-87
2023/03/07 05:00:00;;;;;;;62.97;28.50;;;;;;;-141.97;86.73;47694.00;5036182;28;20224;-87
2023/03/07 05:02:25;;;;;;;62.53;27.57;;;;;;;-141.97;86.58;47822.78;5034243;28;20195;-87
2023/03/07 05:04:51;;;;;;;63.87;28.00;;;;;;;-141.97;86.72;47738.19;5033943;28;20220;-87
2023/03/07 05:07:16;;;;;;;154.37;52.77;;;;;;;-141.97;86.60;47703.59;5033883;28;20265;-89
2023/03/07 05:09:42;;;;;;;132.73;47.67;;;;;;;-141.97;86.77;47747.81;5032860;28;20530;-87
2023/03/07 05:12:07;;;;;;;70.13;30.40;;;;;;;-141.97;86.50;47738.19;5034241;28;20175;-87
2023/03/07 05:14:32;;;;;;;61.13;28.10;;;;;;;-141.97;85.78;47807.41;5032627;28;20192;-87
2023/03/07 05:16:58;;;;;;;60.37;27.37;;;;;;;-141.97;85.39;47688.22;5034085;28;20173;-87
2023/03/07 05:19:23;;;;;;;62.67;28.13;;;;;;;-141.97;84.65;47742.03;5032931;28;20633;-88
2023/03/07 05:21:49;;;;;;;68.00;30.33;;;;;;;-141.97;84.31;47763.19;5033834;28;20558;-88
2023/03/07 05:24:14;;;;;;;67.63;30.03;;;;;;;-141.97;84.70;47797.78;5034173;28;20190;-87
2023/03/07 05:26:40;;;;;;;59.03;25.17;;;;;;;-141.97;84.34;47782.41;5033859;28;20225;-87
2023/03/07 05:29:05;;;;;;;55.53;26.47;;;;;;;-141.97;84.44;47715.13;5033141;28;20619;-87
2023/03/07 05:31:31;;;;;;;62.17;28.17;;;;;;;-141.97;84.57;47688.22;5034324;28;20564;-87
2023/03/07 05:33:57;;;;;;;67.23;31.23;;;;;;;-141.97;84.43;47747.81;5034943;28;20174;-87
2023/03/07 05:36:22;;;;;;;185.17;80.30;;;;;;;-141.97;84.33;47807.41;5033286;28;20607;-87
2023/03/07 05:38:47;;;;;;;181.40;72.37;;;;;;;-141.97;84.33;47792.03;5033275;28;20209;-87
2023/03/07 05:41:13;;;;;;;77.30;32.17;;;;;;;-141.97;83.63;47699.75;5034272;28;20614;-88
2023/03/07 05:43:38;;;;;;;71.63;31.60;;;;;;;-141.97;84.71;47788.19;5034535;28;20174;-87
2023/03/07 05:46:04;;;;;;;61.30;26.57;;;;;;;-141.97;84.18;47755.50;5034905;28;20204;-89
2023/03/07 05:48:30;;;;;;;63.93;27.83;;;;;;;-141.97;84.71;47688.22;5032876;28;20189;-90
2023/03/07 05:50:59;;;;;;;60.10;28.20;;;;;;;-141.97;85.03;47692.06;5038470;28;20314;-89
2023/03/07 05:53:25;;;;;;;61.87;28.67;;;;;;;-141.97;85.79;47705.53;5033601;28;20483;-91
2023/03/07 05:55:50;;;;;;;58.70;25.63;;;;;;;-141.97;86.36;47755.50;5035059;28;20401;-91
2023/03/07 05:58:16;;;;;;;57.87;24.00;;;;;;;-141.97;86.09;47742.03;5039333;28;20174;-92
2023/03/07 06:00:41;;;;;;;61.07;26.27;;;;;;;-141.97;86.42;47653.63;5033583;28;20611;-91
2023/03/07 06:03:07;;;;;;;56.57;25.93;;;;;;;-141.97;85.88;47622.88;5034067;28;20622;-91
2023/03/07 06:05:32;;;;;;;60.63;27.47;;;;;;;-141.97;85.08;47805.47;5033276;28;20205;-90
2023/03/07 06:07:58;;;;;;;63.90;27.20;;;;;;;-141.97;84.20;47711.28;5032178;28;20184;-90
2023/03/07 06:10:24;;;;;;;68.17;28.63;;;;;;;-141.97;83.51;47855.44;5033835;28;20189;-90
2023/03/07 06:12:50;;;;;;;58.97;25.37;;;;;;;-141.97;83.82;47757.41;5033124;28;20162;-91
2023/03/07 06:15:16;;;;;;;53.73;23.50;;;;;;;-141.97;84.31;47692.06;5035013;28;20444;-91
2023/03/07 06:17:42;;;;;;;139.20;55.77;;;;;;;-141.97;85.36;47657.47;5040251;28;20416;-91
2023/03/07 06:20:08;;;;;;;50.70;23.67;;;;;;;-141.97;85.56;47811.25;5043602;28;20626;-91
2023/03/07 06:22:36;;;;;;;51.40;23.37;;;;;;;-141.97;85.42;47809.31;5037454;28;20189;-91
2023/03/07 06:25:06;;;;;;;52.27;24.50;;;;;;;-141.97;84.85;47642.09;5033295;28;20519;-91
2023/03/07 06:27:32;;;;;;;69.13;27.73;;;;;;;-141.97;84.88;47772.78;5032714;28;20444;-92
2023/03/07 06:29:58;;;;;;;59.07;28.40;;;;;;;-141.97;84.66;47620.94;5031620;28;20420;-92
2023/03/07 06:32:23;;;;;;;60.20;27.37;;;;;;;-141.97;83.31;47728.59;5035219;28;20427;-90
2023/03/07 06:34:49;;;;;;;74.57;34.37;;;;;;;-141.97;82.22;47765.09;5034168;28;20163;-91
2023/03/07 06:37:14;;;;;;;87.60;38.50;;;;;;;-141.97;81.41;47807.41;5033737;28;20236;-92
2023/03/07 06:39:40;;;;;;;101.93;44.93;;;;;;;-141.97;79.80;47765.09;5034833;28;20165;-92
2023/03/07 06:42:05;;;;;;;75.23;34.17;;;;;;;-141.97;79.95;47692.06;5032522;28;20233;-91
2023/03/07 06:44:31;;;;;;;62.83;30.50;;;;;;;-141.97;80.10;47713.22;5032458;28;20166;-92
2023/03/07 06:46:56;;;;;;;53.60;26.97;;;;;;;-141.97;80.14;47772.78;5033808;28;20695;-90
2023/03/07 06:49:22;;;;;;;51.03;25.93;;;;;;;-141.97;80.45;47720.91;5036008;28;20305;-91
2023/03/07 06:51:47;;;;;;;46.27;21.63;;;;;;;-141.97;81.23;47742.03;5035068;28;20178;-90
2023/03/07 06:54:13;;;;;;;47.37;21.80;;;;;;;-141.97;80.89;47813.16;5034425;28;20239;-90
2023/03/07 06:56:38;;;;;;;47.60;21.70;;;;;;;-141.97;82.52;47866.97;5033411;28;20248;-91
2023/03/07 06:59:04;;;;;;;51.60;25.03;;;;;;;-141.97;82.44;47688.22;5034583;28;20177;-90
2023/03/07 07:01:29;;;;;;;47.80;24.07;;;;;;;-141.97;81.75;47755.50;5033082;28;20173;-91
2023/03/07 07:03:55;;;;;;;59.10;27.17;;;;;;;-141.97;80.06;47805.47;5034795;28;20166;-90
2023/03/07 07:06:21;;;;;;;45.60;21.57;;;;;;;-141.97;79.62;47822.78;5098347;22;20262;-91
2023/03/07 07:08:47;;;;;;;46.33;22.40;;;;;;;-141.97;79.85;47734.34;5061483;22;20863;-91
2023/03/07 07:11:12;;;;;;;38.77;18.97;;;;;;;-141.97;77.80;47699.75;5020790;28;20162;-92
2023/03/07 07:13:37;;;;;;;45.70;22.63;;;;;;;-141.97;76.05;47857.38;5030250;28;20201;-90
2023/03/07 07:16:07;;;;;;;50.70;24.50;;;;;;;-141.97;75.43;47788.19;5015181;28;20174;-91
2023/03/07 07:18:33;;;;;;;49.00;25.90;;;;;;;-141.97;74.59;47738.19;5004583;28;20183;-91
2023/03/07 07:20:58;;;;;;;45.13;20.53;;;;;;;-141.97;74.14;47784.34;4994880;28;20483;-91
2023/03/07 07:23:25;;;;;;;42.97;22.37;;;;;;;-141.97;73.22;47661.31;5018569;28;20178;-90
2023/03/07 07:25:52;;;;;;;42.23;20.27;;;;;;;-141.97;71.58;47642.09;5003347;28;20210;-90
2023/03/07 07:28:17;;;;;;;40.47;20.30;;;;;;;-141.97;69.61;47788.19;4995082;28;20815;-89
2023/03/07 07:30:43;;;;;;;43.47;20.37;;;;;;;-141.97;68.48;47718.97;4996399;28;20174;-90
2023/03/07 07:33:08;;;;;;;40.70;22.43;;;;;;;-141.97;67.64;47715.13;4999016;28;20178;-90
2023/03/07 07:35:34;;;;;;;41.07;19.57;;;;;;;-141.97;66.42;47709.38;5015471;28;20273;-89
2023/03/07 07:38:01;;;;;;;39.10;20.07;;;;;;;-141.97;65.53;47847.75;4998609;28;20181;-91
2023/03/07 07:40:26;;;;;;;40.20;19.70;;;;;;;-141.97;65.13;47795.88;5005142;28;20241;-89
2023/03/07 07:42:54;;;;;;;43.20;22.43;;;;;;;-141.97;66.06;47711.28;5013014;28;20202;-90
2023/03/07 07:45:23;;;;;;;40.27;19.37;;;;;;;-141.97;65.50;47818.94;5000654;28;20186;-92
2023/03/07 07:47:49;;;;;;;40.60;20.67;;;;;;;-141.97;66.68;47738.19;4999207;28;20710;-92
2023/03/07 07:50:20;;;;;;;38.10;19.67;;;;;;;-141.97;65.04;47772.78;5000094;28;20624;-93
2023/03/07 07:52:45;;;;;;;38.53;20.87;;;;;;;-141.97;65.21;47722.81;4997489;28;20369;-92
2023/03/07 07:55:13;;;;;;;43.27;21.00;;;;;;;-141.97;65.84;47749.72;4999621;28;20963;-92
2023/03/07 07:57:39;;;;;;;48.07;23.93;;;;;;;-141.97;66.33;47674.78;4998986;28;20190;-92
2023/03/07 08:00:05;;;;;;;42.20;20.97;;;;;;;-141.97;65.07;47872.75;4999923;28;20289;-91
2023/03/07 08:02:33;;;;;;;46.67;23.13;;;;;;;-141.97;64.05;47861.22;4998652;28;20229;-92
2023/03/07 08:04:59;;;;;;;42.40;21.30;;;;;;;-141.97;62.32;47784.34;4999146;28;20198;-92
2023/03/07 08:07:24;;;;;;;39.47;19.83;;;;;;;-141.97;60.66;47759.34;4985567;28;20307;-92
2023/03/07 08:09:49;;;;;;;41.90;21.70;;;;;;;-141.97;59.63;47886.22;5016672;28;20179;-92
2023/03/07 08:12:15;;;;;;;40.80;20.40;;;;;;;-141.97;60.62;47745.88;5001367;28;20657;-92
2023/03/07 08:14:40;;;;;;;39.03;19.37;;;;;;;-141.97;62.00;47726.66;4998589;28;20199;-92
2023/03/07 08:17:05;;;;;;;41.03;20.27;;;;;;;-141.97;62.40;47880.44;4998863;28;20266;-91
2023/03/07 08:19:31;;;;;;;34.90;18.93;;;;;;;-141.97;60.85;47749.72;5015586;28;20166;-92
2023/03/07 08:21:57;;;;;;;35.97;19.63;;;;;;;-141.97;60.10;47690.16;4997406;28;20816;-92
2023/03/07 08:24:23;;;;;;;39.53;21.50;;;;;;;-141.97;58.94;47703.59;4997853;28;20266;-91
2023/03/07 08:26:48;;;;;;;42.20;21.20;;;;;;;-141.97;58.11;47826.63;4998736;28;20289;-92
2023/03/07 08:29:14;;;;;;;37.00;19.17;;;;;;;-141.97;57.86;47818.94;4997354;28;20179;-91
2023/03/07 08:31:43;;;;;;;36.53;20.50;;;;;;;-141.97;56.84;47811.25;4997219;28;20537;-93
2023/03/07 08:34:08;;;;;;;39.13;21.70;;;;;;;-141.97;56.35;47803.56;5000799;28;20186;-92
2023/03/07 08:36:34;;;;;;;36.97;18.87;;;;;;;-141.97;56.45;47809.31;5016377;28;20257;-91
2023/03/07 08:38:59;;;;;;;32.73;18.37;;;;;;;-141.97;58.14;47740.13;5017034;28;20701;-91
2023/03/07 08:41:25;;;;;;;35.17;18.00;;;;;;;-141.97;59.22;47642.09;5023594;28;20178;-91
2023/03/07 08:43:50;;;;;;;36.43;19.20;;;;;;;-141.97;57.99;47688.22;5002365;28;20262;-93
2023/03/07 08:46:16;;;;;;;39.30;20.40;;;;;;;-141.97;57.20;47688.22;5015341;28;20759;-92
2023/03/07 08:48:41;;;;;;;39.37;20.47;;;;;;;-141.97;56.40;47828.53;4997456;28;20248;-92
2023/03/07 08:51:10;;;;;;;36.00;19.73;;;;;;;-141.97;55.26;47609.41;4997954;28;20175;-92
2023/03/07 08:53:36;;;;;;;40.13;20.43;;;;;;;-141.97;54.76;47726.66;5015636;28;20174;-92
2023/03/07 08:56:06;;;;;;;41.83;21.20;;;;;;;-141.97;54.65;47742.03;4997889;28;20174;-88
2023/03/07 08:58:31;;;;;;;39.10;21.17;;;;;;;-141.97;53.46;47599.81;4998919;28;20623;-92
2023/03/07 09:00:57;;;;;;;57.30;26.97;;;;;;;-141.97;53.78;47788.19;4998216;28;20175;-91
2023/03/07 09:03:22;;;;;;;34.03;18.63;;;;;;;-141.97;54.80;47692.06;4998208;28;20878;-92
2023/03/07 09:05:48;;;;;;;38.33;20.53;;;;;;;-141.97;54.86;47647.84;4998925;28;20202;-93
2023/03/07 09:08:13;;;;;;;32.07;17.73;;;;;;;-141.97;53.71;47670.91;4998394;28;20618;-92
2023/03/07 09:10:39;;;;;;;35.70;19.43;;;;;;;-141.97;52.95;47734.34;5015240;28;20171;-91
2023/03/07 09:13:04;;;;;;;33.67;18.57;;;;;;;-141.97;52.58;47847.75;5014054;28;20171;-91
2023/03/07 09:15:30;;;;;;;31.13;18.33;;;;;;;-141.97;52.75;47644.00;5013374;28;20174;-91
2023/03/07 09:17:55;;;;;;;29.63;17.63;;;;;;;-141.97;52.05;47717.06;5013995;28;20265;-92
2023/03/07 09:22:50;;;;;;;32.87;17.87;;;;;;;-141.97;51.40;47842.00;5002068;28;20254;-93
2023/03/07 09:25:17;;;;;;;37.97;18.80;;;;;;;-141.97;51.18;47715.13;4999739;28;20182;-93
2023/03/07 09:27:44;;;;;;;35.47;18.53;;;;;;;-141.97;51.32;47634.41;4995290;28;20710;-91
2023/03/07 09:30:10;;;;;;;34.50;18.37;;;;;;;-141.97;50.52;47765.09;4995585;28;20178;-92
2023/03/07 09:32:36;;;;;;;36.57;18.60;;;;;;;-141.97;49.36;47601.72;4996364;28;20187;-91
2023/03/07 09:35:01;;;;;;;34.83;17.57;;;;;;;-141.97;48.50;47828.53;4994893;28;20272;-91
2023/03/07 09:37:27;;;;;;;34.97;18.93;;;;;;;-141.97;46.56;47599.81;4997445;28;20183;-91
2023/03/07 09:39:52;;;;;;;29.40;16.83;;;;;;;-141.97;45.62;47686.31;4996139;28;20222;-91
2023/03/07 09:42:45;;;;;;;32.87;19.33;;;;;;;-141.97;45.88;47793.94;5007735;28;20249;-92
2023/03/07 09:45:45;;;;;;;31.70;16.97;;;;;;;-141.97;45.34;47747.81;4998891;28;20940;-93
2023/03/07 09:48:27;;;;;;;39.43;21.67;;;;;;;-141.97;47.46;47734.34;4996784;28;20174;-90
2023/03/07 09:51:14;;;;;;;36.63;20.90;;;;;;;-141.97;46.73;47742.03;4994967;28;20167;-92
2023/03/07 09:53:50;;;;;;;37.30;20.33;;;;;;;-141.97;46.90;47632.47;4996043;28;20617;-90
2023/03/07 09:56:28;;;;;;;31.20;18.43;;;;;;;-141.97;45.94;47699.75;4996878;28;20722;-90
2023/03/07 09:59:12;;;;;;;33.17;18.10;;;;;;;-141.97;46.39;47649.78;4992534;28;20199;-90
2023/03/07 10:01:41;;;;;;;31.23;18.43;;;;;;;-141.97;46.61;47730.50;4993527;28;20270;-90
2023/03/07 10:04:16;;;;;;;33.23;18.43;;;;;;;-141.97;46.75;47720.91;4992781;28;20179;-92
2023/03/07 10:06:44;;;;;;;23.13;14.80;;;;;;;-141.97;45.47;47692.06;4979933;28;20250;-91
2023/03/07 10:09:15;;;;;;;24.77;13.47;;;;;;;-141.97;45.61;47842.00;4991737;28;20706;-78
2023/03/07 10:12:16;;;;;;;29.30;16.43;;;;;;;-141.97;45.20;47703.59;4992121;28;20249;-80
2023/03/07 10:15:09;;;;;;;26.20;16.17;;;;;;;-141.97;43.79;47692.06;4970212;28;20737;-79
2023/03/07 10:18:04;;;;;;;27.20;14.90;;;;;;;-141.97;42.62;47703.59;4970692;28;20191;-80
2023/03/07 10:21:04;;;;;;;25.03;14.50;;;;;;;-141.97;42.46;47703.59;4892825;29;20745;-79
2023/03/07 10:23:42;;;;;;;24.30;14.57;;;;;;;-141.97;40.89;47720.91;4875929;29;20199;-79
2023/03/07 10:26:12;;;;;;;24.03;15.30;;;;;;;-141.97;40.52;47703.59;4875917;29;20676;-79
2023/03/07 10:28:41;;;;;;;23.60;14.13;;;;;;;-141.97;40.29;47686.31;4874466;29;20191;-79
2023/03/07 10:31:21;;;;;;;21.47;13.07;;;;;;;-141.97;39.75;47701.69;4876470;29;20199;-79
2023/03/07 10:33:49;;;;;;;21.77;13.60;;;;;;;-141.97;38.95;47672.84;4876618;29;20187;-78
2023/03/07 10:36:19;;;;;;;19.37;12.83;;;;;;;-141.97;38.67;47657.47;4875477;29;20179;-78
2023/03/07 10:38:50;;;;;;;13.43;9.00;;;;;;;-141.97;37.61;47718.97;4875573;29;20207;-78
2023/03/07 10:41:20;;;;;;;18.23;11.77;;;;;;;-141.97;37.48;47690.16;4875365;29;20649;-79
2023/03/07 10:43:48;;;;;;;17.17;11.10;;;;;;;-141.97;38.00;47672.84;4875380;29;20268;-78
2023/03/07 10:46:19;;;;;;;18.10;11.70;;;;;;;-141.97;38.06;47863.13;4875205;29;20298;-78
2023/03/07 10:49:15;;;;;;;16.57;11.03;;;;;;;-141.97;38.61;47703.59;4859536;29;20662;-77
2023/03/07 10:51:52;;;;;;;26.63;14.27;;;;;;;-141.97;38.56;47607.50;4852102;29;20219;-78
2023/03/07 10:54:21;;;;;;;23.03;13.43;;;;;;;-141.97;38.26;47669.00;4856838;29;20251;-78
2023/03/07 10:57:12;;;;;;;24.53;14.80;;;;;;;-141.97;38.26;47695.91;4878426;29;20256;-78
2023/03/07 10:59:48;;;;;;;22.00;14.03;;;;;;;-141.97;38.48;47684.38;4926481;29;20211;-78
2023/03/07 11:02:43;;;;;;;24.90;14.07;;;;;;;-141.97;38.35;47686.31;4928663;29;20201;-79
2023/03/07 11:05:20;;;;;;;27.10;15.13;;;;;;;-141.97;37.61;47665.16;4885564;29;20206;-78
2023/03/07 11:07:45;;;;;;;25.47;14.70;;;;;;;-141.97;38.37;47638.25;4881221;29;20238;-78
2023/03/07 11:10:46;;;;;;;20.97;14.10;;;;;;;-141.97;38.92;47684.38;4893106;29;21322;-79